createdAt,value
2023-05-13T00:00:30.817Z,14.65
2023-05-13T00:02:57.642Z,14.76
2023-05-13T00:05:24.302Z,14.92
2023-05-13T00:07:50.807Z,14.92
2023-05-13T00:10:17.544Z,15.08
2023-05-13T00:12:44.269Z,15.25
2023-05-13T00:15:10.952Z,14.79
2023-05-13T00:17:37.562Z,14.62
2023-05-13T00:20:04.731Z,14.21
2023-05-13T00:22:31.256Z,13.96
2023-05-13T00:24:57.941Z,13.56
2023-05-13T00:27:24.726Z,13.77
2023-05-13T00:29:54.065Z,13.55
2023-05-13T00:32:20.641Z,13.39
2023-05-13T00:34:50.131Z,13.14
2023-05-13T00:37:19.342Z,13.50
2023-05-13T00:39:45.941Z,12.78
2023-05-13T00:42:13.731Z,13.20
2023-05-13T00:44:40.956Z,13.07
2023-05-13T00:47:07.980Z,13.32
2023-05-13T00:49:34.691Z,13.45
2023-05-13T00:52:01.564Z,13.46
2023-05-13T00:54:31.274Z,13.41
2023-05-13T00:56:58.379Z,13.59
2023-05-13T00:59:26.663Z,13.99
2023-05-13T01:02:04.981Z,13.91
2023-05-13T01:04:37.922Z,13.60
2023-05-13T01:07:04.511Z,13.67
2023-05-13T01:09:46.899Z,13.56
2023-05-13T01:12:18.859Z,13.28
2023-05-13T01:14:49.555Z,12.97
2023-05-13T01:17:24.042Z,12.72
2023-05-13T01:19:58.136Z,12.56
2023-05-13T01:22:24.698Z,12.90
2023-05-13T01:24:51.390Z,13.02
2023-05-13T01:27:21.059Z,12.85
2023-05-13T01:29:49.509Z,12.68
2023-05-13T01:32:24.398Z,12.56
2023-05-13T01:34:55.441Z,12.77
2023-05-13T01:37:22.187Z,12.56
2023-05-13T01:39:49.504Z,12.25
2023-05-13T01:42:19.643Z,12.27
2023-05-13T01:44:46.702Z,12.36
2023-05-13T01:47:13.278Z,12.73
2023-05-13T01:49:39.957Z,12.58
2023-05-13T01:52:07.222Z,12.79
2023-05-13T01:54:36.324Z,12.80
2023-05-13T01:57:16.247Z,13.07
2023-05-13T01:59:42.942Z,13.23
2023-05-13T02:02:12.575Z,13.56
2023-05-13T02:04:39.274Z,13.80
2023-05-13T02:07:05.837Z,13.92
2023-05-13T02:09:32.922Z,13.58
2023-05-13T02:11:59.598Z,13.38
2023-05-13T02:14:26.537Z,13.21
2023-05-13T02:16:58.617Z,13.15
2023-05-13T02:19:25.643Z,13.07
2023-05-13T02:21:55.266Z,12.64
2023-05-13T02:24:22.018Z,12.58
2023-05-13T02:26:48.533Z,13.27
2023-05-13T02:29:15.199Z,13.14
2023-05-13T02:31:43.291Z,13.19
2023-05-13T02:34:10.182Z,12.97
2023-05-13T02:36:37.152Z,12.75
2023-05-13T02:39:05.280Z,13.24
2023-05-13T02:41:34.589Z,13.44
2023-05-13T02:44:01.235Z,13.07
2023-05-13T02:46:31.519Z,12.73
2023-05-13T02:48:59.398Z,12.63
2023-05-13T02:51:28.700Z,12.90
2023-05-13T02:53:55.294Z,13.18
2023-05-13T02:56:22.008Z,13.07
2023-05-13T02:58:51.013Z,13.04
2023-05-13T03:01:21.023Z,13.09
2023-05-13T03:03:47.944Z,12.93
2023-05-13T03:06:14.565Z,12.61
2023-05-13T03:08:43.783Z,13.04
2023-05-13T03:11:13.456Z,13.00
2023-05-13T03:13:40.085Z,13.29
2023-05-13T03:16:06.730Z,13.25
2023-05-13T03:18:36.412Z,13.10
2023-05-13T03:21:03.155Z,12.85
2023-05-13T03:23:31.907Z,12.80
2023-05-13T03:25:59.018Z,12.51
2023-05-13T03:28:25.654Z,12.64
2023-05-13T03:30:52.398Z,12.35
2023-05-13T03:33:19.361Z,12.24
2023-05-13T03:35:48.552Z,12.31
2023-05-13T03:38:16.499Z,12.79
2023-05-13T03:40:47.507Z,12.60
2023-05-13T03:43:14.409Z,12.85
2023-05-13T03:45:48.446Z,12.73
2023-05-13T03:48:18.185Z,12.35
2023-05-13T03:50:45.731Z,12.35
2023-05-13T03:53:13.434Z,12.27
2023-05-13T03:55:43.967Z,12.41
2023-05-13T03:58:14.518Z,12.06
2023-05-13T04:00:41.897Z,11.88
2023-05-13T04:03:08.599Z,11.74
2023-05-13T04:05:35.672Z,12.03
2023-05-13T04:08:02.284Z,12.31
2023-05-13T04:10:28.935Z,12.32
2023-05-13T04:12:57.291Z,12.20
2023-05-13T04:15:23.954Z,11.75
2023-05-13T04:17:53.882Z,11.92
2023-05-13T04:20:22.922Z,12.34
2023-05-13T04:22:49.785Z,12.00
2023-05-13T04:25:16.447Z,11.97
2023-05-13T04:27:45.605Z,12.11
2023-05-13T04:30:17.996Z,12.71
2023-05-13T04:32:46.197Z,12.93
2023-05-13T04:35:16.404Z,12.98
2023-05-13T04:37:45.988Z,13.11
2023-05-13T04:40:15.495Z,12.62
2023-05-13T04:42:44.630Z,12.47
2023-05-13T04:45:11.561Z,13.10
2023-05-13T04:47:38.380Z,13.32
2023-05-13T04:50:06.886Z,13.36
2023-05-13T04:52:34.652Z,13.44
2023-05-13T04:55:03.637Z,13.50
2023-05-13T04:57:30.462Z,13.46
2023-05-13T04:59:57.069Z,13.49
2023-05-13T05:02:26.013Z,13.54
2023-05-13T05:04:56.649Z,13.28
2023-05-13T05:07:23.632Z,13.70
2023-05-13T05:09:51.461Z,13.84
2023-05-13T05:12:18.774Z,13.86
2023-05-13T05:14:46.322Z,13.90
2023-05-13T05:17:13.001Z,14.32
2023-05-13T05:19:39.978Z,14.07
2023-05-13T05:22:08.328Z,14.16
2023-05-13T05:24:34.965Z,14.37
2023-05-13T05:27:02.194Z,14.54
2023-05-13T05:29:29.400Z,14.67
2023-05-13T05:31:56.202Z,14.73
2023-05-13T05:34:23.016Z,14.82
2023-05-13T05:36:49.806Z,14.81
2023-05-13T05:39:17.674Z,14.73
2023-05-13T05:41:47.177Z,15.01
2023-05-13T05:44:14.398Z,15.15
2023-05-13T05:46:41.552Z,15.34
2023-05-13T05:49:08.433Z,15.31
2023-05-13T05:51:36.247Z,15.45
2023-05-13T05:54:04.332Z,15.56
2023-05-13T05:56:34.352Z,15.63
2023-05-13T05:59:01.299Z,15.46
2023-05-13T06:01:36.691Z,15.68
2023-05-13T06:04:04.548Z,15.76
2023-05-13T06:06:32.394Z,15.79
2023-05-13T06:08:59.739Z,15.54
2023-05-13T06:11:28.259Z,15.73
2023-05-13T06:13:54.937Z,16.05
2023-05-13T06:16:21.576Z,16.15
2023-05-13T06:18:48.284Z,16.20
2023-05-13T06:21:15.103Z,16.24
2023-05-13T06:23:42.406Z,16.33
2023-05-13T06:26:09.078Z,16.26
2023-05-13T06:28:35.762Z,16.58
2023-05-13T06:31:02.399Z,16.26
2023-05-13T06:33:29.822Z,16.54
2023-05-13T06:35:56.457Z,16.72
2023-05-13T06:38:24.553Z,16.72
2023-05-13T06:40:55.775Z,16.79
2023-05-13T06:43:28.853Z,16.84
2023-05-13T06:45:58.506Z,16.88
2023-05-13T06:48:27.633Z,16.75
2023-05-13T06:50:54.270Z,17.16
2023-05-13T06:53:20.854Z,17.13
2023-05-13T06:55:48.031Z,17.22
2023-05-13T06:58:14.570Z,17.40
2023-05-13T07:00:41.411Z,17.51
2023-05-13T07:03:08.579Z,17.52
2023-05-13T07:05:35.761Z,17.67
2023-05-13T07:08:06.766Z,17.62
2023-05-13T07:10:34.847Z,17.61
2023-05-13T07:13:02.046Z,17.73
2023-05-13T07:15:28.903Z,17.93
2023-05-13T07:17:57.813Z,18.20
2023-05-13T07:20:28.680Z,17.92
2023-05-13T07:22:55.351Z,17.94
2023-05-13T07:25:21.891Z,18.18
2023-05-13T07:27:48.557Z,18.33
2023-05-13T07:30:15.479Z,18.56
2023-05-13T07:32:42.244Z,18.60
2023-05-13T07:35:09.892Z,18.66
2023-05-13T07:37:37.160Z,18.75
2023-05-13T07:40:05.240Z,18.69
2023-05-13T07:42:32.438Z,18.87
2023-05-13T07:44:59.217Z,18.78
2023-05-13T07:47:27.695Z,18.91
2023-05-13T07:49:54.499Z,18.89
2023-05-13T07:52:21.080Z,19.01
2023-05-13T07:54:48.150Z,19.13
2023-05-13T07:57:17.141Z,19.24
2023-05-13T07:59:44.957Z,19.24
2023-05-13T08:02:12.000Z,19.39
2023-05-13T08:04:38.629Z,19.23
2023-05-13T08:07:05.407Z,19.41
2023-05-13T08:09:31.971Z,19.73
2023-05-13T08:11:58.555Z,19.58
2023-05-13T08:14:25.102Z,20.01
2023-05-13T08:16:53.208Z,19.86
2023-05-13T08:19:20.089Z,19.97
2023-05-13T08:21:46.813Z,20.00
2023-05-13T08:24:13.374Z,20.07
2023-05-13T08:26:39.959Z,20.37
2023-05-13T08:29:06.578Z,20.49
2023-05-13T08:31:33.307Z,20.47
2023-05-13T08:33:59.882Z,20.49
2023-05-13T08:36:27.178Z,20.61
2023-05-13T08:38:53.735Z,20.63
2023-05-13T08:41:22.062Z,20.60
2023-05-13T08:43:50.545Z,20.37
2023-05-13T08:46:18.610Z,20.50
2023-05-13T08:48:45.804Z,20.81
2023-05-13T08:51:12.699Z,20.81
2023-05-13T08:53:40.117Z,21.03
2023-05-13T08:56:09.766Z,20.87
2023-05-13T08:58:36.506Z,21.04
2023-05-13T09:01:03.881Z,20.94
2023-05-13T09:03:30.912Z,21.01
2023-05-13T09:06:00.243Z,20.96
2023-05-13T09:08:26.786Z,21.34
2023-05-13T09:10:53.576Z,21.46
2023-05-13T09:13:20.113Z,21.54
2023-05-13T09:15:46.952Z,21.39
2023-05-13T09:18:17.999Z,21.32
2023-05-13T09:20:45.582Z,21.32
2023-05-13T09:23:15.398Z,21.72
2023-05-13T09:25:43.097Z,21.59
2023-05-13T09:28:13.988Z,21.63
2023-05-13T09:30:43.786Z,21.86
2023-05-13T09:33:16.341Z,21.91
2023-05-13T09:35:47.151Z,22.00
2023-05-13T09:38:19.955Z,22.28
2023-05-13T09:40:49.972Z,22.12
2023-05-13T09:43:16.657Z,22.37
2023-05-13T09:45:43.261Z,22.29
2023-05-13T09:48:11.364Z,22.33
2023-05-13T09:50:46.903Z,22.46
2023-05-13T09:53:13.593Z,22.45
2023-05-13T09:55:44.388Z,22.44
2023-05-13T09:58:12.457Z,22.49
2023-05-13T10:00:42.829Z,22.29
2023-05-13T10:03:10.619Z,22.37
2023-05-13T10:05:38.434Z,22.57
2023-05-13T10:08:05.574Z,22.57
2023-05-13T10:10:32.859Z,22.64
2023-05-13T10:13:03.650Z,22.86
2023-05-13T10:15:30.704Z,22.89
2023-05-13T10:17:57.640Z,23.22
2023-05-13T10:20:26.161Z,23.07
2023-05-13T10:22:53.125Z,23.17
2023-05-13T10:25:20.119Z,23.23
2023-05-13T10:27:50.165Z,22.72
2023-05-13T10:30:17.792Z,22.78
2023-05-13T10:32:44.505Z,23.55
2023-05-13T10:35:11.144Z,23.56
2023-05-13T10:37:50.276Z,23.67
2023-05-13T10:40:41.425Z,24.04
2023-05-13T10:43:17.232Z,24.01
2023-05-13T10:45:51.931Z,24.37
2023-05-13T10:48:19.756Z,24.66
2023-05-13T10:50:56.822Z,24.24
2023-05-13T10:53:24.803Z,24.61
2023-05-13T10:55:55.954Z,25.14
2023-05-13T10:58:28.107Z,25.20
2023-05-13T11:01:11.898Z,25.22
2023-05-13T11:03:39.795Z,25.66
2023-05-13T11:06:17.230Z,25.66
2023-05-13T11:08:44.698Z,25.71
2023-05-13T11:11:27.138Z,25.67
2023-05-13T11:13:59.788Z,26.09
2023-05-13T11:16:26.587Z,26.99
2023-05-13T11:18:53.560Z,28.15
2023-05-13T11:21:33.353Z,30.14
2023-05-13T11:24:23.100Z,31.76
2023-05-13T11:26:55.228Z,32.89
2023-05-13T11:29:32.458Z,32.71
2023-05-13T11:32:19.017Z,33.50
2023-05-13T11:34:52.526Z,33.53
2023-05-13T11:37:19.400Z,33.27
2023-05-13T11:39:45.948Z,33.35
2023-05-13T11:42:12.938Z,32.62
2023-05-13T11:44:45.674Z,32.80
2023-05-13T11:47:12.491Z,33.36
2023-05-13T11:49:40.532Z,34.30
2023-05-13T11:52:10.236Z,33.66
2023-05-13T11:54:47.820Z,32.98
2023-05-13T11:57:17.233Z,32.47
2023-05-13T11:59:50.782Z,31.78
2023-05-13T12:02:20.199Z,30.61
2023-05-13T12:04:46.873Z,30.20
2023-05-13T12:07:13.569Z,30.60
2023-05-13T12:09:40.175Z,30.00
2023-05-13T12:12:07.202Z,30.20
2023-05-13T12:14:33.876Z,29.95
2023-05-13T12:17:00.548Z,29.73
2023-05-13T12:19:27.154Z,28.98
2023-05-13T12:21:55.923Z,28.80
2023-05-13T12:24:22.751Z,29.01
2023-05-13T12:26:49.716Z,28.92
2023-05-13T12:29:16.486Z,28.30
2023-05-13T12:31:44.090Z,28.64
2023-05-13T12:34:10.840Z,28.90
2023-05-13T12:36:38.421Z,29.21
2023-05-13T12:39:08.329Z,28.76
2023-05-13T12:41:36.003Z,28.78
2023-05-13T12:44:04.310Z,29.10
2023-05-13T12:46:31.498Z,30.14
2023-05-13T12:49:00.064Z,31.32
2023-05-13T12:51:27.126Z,31.19
2023-05-13T12:53:54.534Z,30.57
2023-05-13T12:56:26.041Z,29.88
2023-05-13T12:58:55.889Z,29.51
2023-05-13T13:01:22.823Z,29.49
2023-05-13T13:03:49.767Z,30.03
2023-05-13T13:06:16.492Z,30.61
2023-05-13T13:08:43.428Z,32.07
2023-05-13T13:11:10.483Z,33.15
2023-05-13T13:13:39.228Z,33.73
2023-05-13T13:16:06.381Z,33.87
2023-05-13T13:18:33.143Z,33.90
2023-05-13T13:20:59.814Z,33.94
2023-05-13T13:23:26.466Z,33.71
2023-05-13T13:25:53.125Z,33.12
2023-05-13T13:28:19.729Z,32.76
2023-05-13T13:30:47.363Z,33.08
2023-05-13T13:33:15.281Z,32.85
2023-05-13T13:35:45.723Z,31.92
2023-05-13T13:38:12.463Z,31.53
2023-05-13T13:40:39.858Z,29.84
2023-05-13T13:43:09.548Z,28.32
2023-05-13T13:45:36.876Z,28.12
2023-05-13T13:48:05.843Z,28.75
2023-05-13T13:50:32.502Z,30.10
2023-05-13T13:52:59.025Z,30.57
2023-05-13T13:55:26.698Z,30.49
2023-05-13T13:57:53.335Z,30.94
2023-05-13T14:00:20.372Z,30.21
2023-05-13T14:02:47.153Z,29.59
2023-05-13T14:05:14.082Z,29.23
2023-05-13T14:07:40.623Z,29.23
2023-05-13T14:10:08.098Z,28.90
2023-05-13T14:12:36.426Z,28.29
2023-05-13T14:15:03.253Z,27.45
2023-05-13T14:17:29.828Z,27.61
2023-05-13T14:19:56.476Z,27.70
2023-05-13T14:22:23.764Z,27.23
2023-05-13T14:24:51.544Z,27.06
2023-05-13T14:27:18.391Z,26.73
2023-05-13T14:29:45.846Z,25.98
2023-05-13T14:32:12.387Z,25.53
2023-05-13T14:34:39.092Z,25.38
2023-05-13T14:37:05.754Z,25.73
2023-05-13T14:39:32.332Z,26.41
2023-05-13T14:41:58.877Z,27.09
2023-05-13T14:44:25.574Z,27.28
2023-05-13T14:46:52.233Z,27.52
2023-05-13T14:49:18.875Z,27.77
2023-05-13T14:51:45.448Z,27.91
2023-05-13T14:54:12.035Z,28.67
2023-05-13T14:56:38.622Z,28.76
2023-05-13T14:59:05.274Z,28.98
2023-05-13T15:01:31.852Z,28.41
2023-05-13T15:03:59.702Z,27.46
2023-05-13T15:06:27.402Z,26.89
2023-05-13T15:08:54.064Z,26.37
2023-05-13T15:11:21.002Z,25.96
2023-05-13T15:13:47.576Z,25.93
2023-05-13T15:16:14.248Z,25.09
2023-05-13T15:18:40.945Z,25.29
2023-05-13T15:21:09.752Z,25.74
2023-05-13T15:23:36.625Z,26.44
2023-05-13T15:26:03.226Z,26.56
2023-05-13T15:28:29.872Z,26.85
2023-05-13T15:30:56.458Z,26.81
2023-05-13T15:33:23.121Z,26.66
2023-05-13T15:35:49.825Z,26.21
2023-05-13T15:38:17.371Z,25.67
2023-05-13T15:40:43.938Z,25.53
2023-05-13T15:43:10.550Z,25.11
2023-05-13T15:45:37.523Z,24.87
2023-05-13T15:48:04.251Z,24.78
2023-05-13T15:50:31.677Z,24.88
2023-05-13T15:52:58.268Z,25.21
2023-05-13T15:55:24.870Z,25.78
2023-05-13T15:57:51.438Z,25.63
2023-05-13T16:00:18.442Z,25.71
2023-05-13T16:02:45.132Z,25.66
2023-05-13T16:05:12.104Z,26.25
2023-05-13T16:07:38.697Z,25.98
2023-05-13T16:10:05.541Z,25.77
2023-05-13T16:12:32.102Z,26.13
2023-05-13T16:14:58.883Z,26.19
2023-05-13T16:17:25.506Z,26.32
2023-05-13T16:19:52.263Z,26.04
2023-05-13T16:22:44.873Z,25.31
2023-05-13T16:25:11.773Z,25.16
2023-05-13T16:27:39.257Z,24.88
2023-05-13T16:30:07.398Z,24.19
2023-05-13T16:32:34.888Z,24.18
2023-05-13T16:35:02.161Z,23.93
2023-05-13T16:37:28.817Z,23.69
2023-05-13T16:39:55.503Z,23.68
2023-05-13T16:42:22.281Z,23.86
2023-05-13T16:44:48.957Z,23.80
2023-05-13T16:47:15.636Z,23.90
2023-05-13T16:49:42.716Z,23.33
2023-05-13T16:52:11.564Z,23.38
2023-05-13T16:54:38.228Z,23.85
2023-05-13T16:57:05.991Z,24.50
2023-05-13T16:59:32.716Z,24.49
2023-05-13T17:02:01.586Z,24.54
2023-05-13T17:04:28.537Z,24.63
2023-05-13T17:06:56.842Z,24.73
2023-05-13T17:09:25.884Z,24.75
2023-05-13T17:11:54.715Z,24.55
2023-05-13T17:14:24.243Z,24.51
2023-05-13T17:16:51.083Z,24.32
2023-05-13T17:19:17.871Z,24.53
2023-05-13T17:21:44.575Z,24.53
2023-05-13T17:24:11.141Z,24.20
2023-05-13T17:26:39.017Z,24.23
2023-05-13T17:29:06.639Z,24.04
2023-05-13T17:31:36.281Z,23.74
2023-05-13T17:34:02.861Z,23.73
2023-05-13T17:36:29.561Z,23.73
2023-05-13T17:38:56.220Z,23.51
2023-05-13T17:41:23.623Z,23.38
2023-05-13T17:43:50.720Z,23.47
2023-05-13T17:46:17.287Z,23.13
2023-05-13T17:48:43.956Z,23.45
2023-05-13T17:51:10.821Z,23.34
2023-05-13T17:53:37.402Z,23.34
2023-05-13T17:56:06.445Z,23.07
2023-05-13T17:58:40.388Z,22.98
2023-05-13T18:01:07.133Z,22.85
2023-05-13T18:03:34.707Z,22.77
2023-05-13T18:06:01.349Z,22.77
2023-05-13T18:08:28.235Z,22.60
2023-05-13T18:10:55.582Z,22.64
2023-05-13T18:13:22.224Z,22.36
2023-05-13T18:15:48.909Z,22.56
2023-05-13T18:18:18.731Z,22.41
2023-05-13T18:20:45.364Z,22.36
2023-05-13T18:23:11.945Z,22.19
2023-05-13T18:25:48.812Z,21.72
2023-05-13T18:28:27.492Z,21.88
2023-05-13T18:30:54.544Z,22.01
2023-05-13T18:33:21.860Z,21.80
2023-05-13T18:35:50.658Z,21.49
2023-05-13T18:38:17.216Z,21.62
2023-05-13T18:40:43.852Z,21.59
2023-05-13T18:43:10.494Z,21.62
2023-05-13T18:45:37.152Z,21.37
2023-05-13T18:48:03.978Z,21.54
2023-05-13T18:50:30.666Z,21.59
2023-05-13T18:52:57.304Z,21.36
2023-05-13T18:55:23.904Z,21.06
2023-05-13T18:57:50.756Z,20.70
2023-05-13T19:00:17.871Z,20.40
2023-05-13T19:02:44.654Z,20.64
2023-05-13T19:05:11.402Z,20.46
2023-05-13T19:07:37.915Z,20.56
2023-05-13T19:10:04.673Z,20.51
2023-05-13T19:12:31.239Z,20.48
2023-05-13T19:15:00.186Z,19.88
2023-05-13T19:17:26.912Z,19.82
2023-05-13T19:19:53.583Z,20.20
2023-05-13T19:22:25.287Z,20.46
2023-05-13T19:24:51.861Z,20.35
2023-05-13T19:27:18.689Z,20.21
2023-05-13T19:29:45.392Z,20.24
2023-05-13T19:32:11.970Z,20.05
2023-05-13T19:34:38.694Z,19.84
2023-05-13T19:37:05.529Z,19.77
2023-05-13T19:39:32.431Z,19.94
2023-05-13T19:41:58.947Z,19.54
2023-05-13T19:44:27.999Z,19.47
2023-05-13T19:46:55.203Z,19.66
2023-05-13T19:49:22.041Z,19.70
2023-05-13T19:51:48.825Z,19.66
2023-05-13T19:54:15.477Z,19.50
2023-05-13T19:56:42.069Z,19.03
2023-05-13T19:59:08.759Z,18.97
2023-05-13T20:01:35.468Z,18.92
2023-05-13T20:04:02.191Z,18.63
2023-05-13T20:06:28.895Z,18.77
2023-05-13T20:08:59.359Z,18.78
2023-05-13T20:11:26.521Z,18.25
2023-05-13T20:13:53.133Z,18.10
2023-05-13T20:16:23.549Z,17.97
2023-05-13T20:18:52.541Z,17.89
2023-05-13T20:21:19.191Z,17.67
2023-05-13T20:23:45.811Z,17.57
2023-05-13T20:26:12.358Z,17.47
2023-05-13T20:28:38.918Z,17.17
2023-05-13T20:31:05.587Z,16.81
2023-05-13T20:33:32.559Z,16.71
2023-05-13T20:35:59.116Z,16.73
2023-05-13T20:38:25.960Z,16.76
2023-05-13T20:40:53.415Z,16.72
2023-05-13T20:43:20.073Z,16.29
2023-05-13T20:45:46.675Z,16.58
2023-05-13T20:48:13.676Z,16.44
2023-05-13T20:50:40.563Z,16.37
2023-05-13T20:53:09.888Z,16.10
2023-05-13T20:55:36.430Z,16.23
2023-05-13T20:58:05.789Z,16.22
2023-05-13T21:00:32.341Z,16.09
2023-05-13T21:02:59.785Z,16.06
2023-05-13T21:05:26.463Z,15.95
2023-05-13T21:07:55.354Z,16.02
2023-05-13T21:10:23.809Z,15.83
2023-05-13T21:12:51.528Z,15.44
2023-05-13T21:15:18.114Z,15.40
2023-05-13T21:17:44.767Z,15.67
2023-05-13T21:20:11.999Z,15.86
2023-05-13T21:22:38.581Z,16.00
2023-05-13T21:25:05.414Z,16.24
2023-05-13T21:27:35.077Z,16.06
2023-05-13T21:30:01.896Z,16.05
2023-05-13T21:32:28.518Z,16.22
2023-05-13T21:34:56.066Z,15.90
2023-05-13T21:37:27.772Z,16.02
2023-05-13T21:39:54.427Z,16.05
2023-05-13T21:42:24.007Z,15.61
2023-05-13T21:44:51.352Z,15.42
2023-05-13T21:47:17.957Z,15.98
2023-05-13T21:49:44.600Z,16.28
2023-05-13T21:52:11.192Z,16.26
2023-05-13T21:54:38.342Z,16.25
2023-05-13T21:57:04.984Z,16.20
2023-05-13T21:59:31.638Z,15.70
2023-05-13T22:01:58.265Z,15.37
2023-05-13T22:04:26.612Z,15.27
2023-05-13T22:06:53.552Z,14.88
2023-05-13T22:09:20.238Z,14.66
2023-05-13T22:11:46.790Z,14.22
2023-05-13T22:14:14.038Z,14.46
2023-05-13T22:16:41.320Z,14.46
2023-05-13T22:19:08.261Z,14.83
2023-05-13T22:21:34.958Z,15.06
2023-05-13T22:24:01.960Z,14.83
2023-05-13T22:26:28.841Z,14.58
2023-05-13T22:28:55.735Z,14.82
2023-05-13T22:31:22.403Z,15.09
2023-05-13T22:33:49.040Z,15.39
2023-05-13T22:36:15.599Z,15.25
2023-05-13T22:38:42.662Z,14.57
2023-05-13T22:41:09.319Z,15.04
2023-05-13T22:43:38.890Z,15.18
2023-05-13T22:46:05.573Z,15.20
2023-05-13T22:48:35.030Z,15.28
2023-05-13T22:51:01.706Z,15.23
2023-05-13T22:53:28.246Z,14.64
2023-05-13T22:55:54.893Z,14.55
2023-05-13T22:58:21.443Z,13.84
2023-05-13T23:00:48.634Z,13.25
2023-05-13T23:03:15.229Z,13.17
2023-05-13T23:05:41.836Z,13.37
2023-05-13T23:08:11.422Z,13.63
2023-05-13T23:10:38.046Z,13.63
2023-05-13T23:13:13.147Z,13.60
2023-05-13T23:15:39.881Z,14.05
2023-05-13T23:18:06.510Z,13.73
2023-05-13T23:20:35.480Z,13.59
2023-05-13T23:23:02.015Z,13.29
2023-05-13T23:25:28.658Z,13.05
2023-05-13T23:27:58.129Z,13.42
2023-05-13T23:30:24.996Z,13.15
2023-05-13T23:32:51.729Z,13.07
2023-05-13T23:35:18.429Z,13.61
2023-05-13T23:37:45.000Z,13.50
2023-05-13T23:40:11.776Z,13.94
2023-05-13T23:42:43.037Z,13.72
2023-05-13T23:45:09.944Z,13.86
2023-05-13T23:47:38.445Z,13.49
2023-05-13T23:50:05.602Z,13.37
2023-05-13T23:52:32.126Z,13.58
2023-05-13T23:55:01.126Z,13.78
2023-05-13T23:57:27.681Z,13.72
2023-05-13T23:59:54.288Z,13.35
